sensor_id;sensor_type;location;lat;lon;timestamp;pressure;altitude;pressure_sealevel;temperature;humidity
40384;BME280;26097;42.366;23.818;2023-10-19T00:02:03;94207.81;;;3.19;100.00
40384;BME280;26097;42.366;23.818;2023-10-19T00:05:03;94198.00;;;3.27;100.00
40384;BME280;26097;42.366;23.818;2023-10-19T00:08:03;94200.34;;;3.51;100.00
40384;BME280;26097;42.366;23.818;2023-10-19T00:11:12;94197.06;;;3.67;100.00
40384;BME280;26097;42.366;23.818;2023-10-19T00:14:21;94194.06;;;3.76;100.00
40384;BME280;26097;42.366;23.818;2023-10-19T00:17:20;94189.81;;;3.93;100.00
40384;BME280;26097;42.366;23.818;2023-10-19T00:20:20;94184.53;;;3.96;100.00
40384;BME280;26097;42.366;23.818;2023-10-19T00:23:50;94175.03;;;3.96;100.00
40384;BME280;26097;42.366;23.818;2023-10-19T00:26:51;94168.75;;;4.02;100.00
40384;BME280;26097;42.366;23.818;2023-10-19T00:29:54;94168.44;;;4.08;100.00
40384;BME280;26097;42.366;23.818;2023-10-19T00:33:03;94167.25;;;4.16;100.00
40384;BME280;26097;42.366;23.818;2023-10-19T00:36:15;94173.75;;;4.23;100.00
40384;BME280;26097;42.366;23.818;2023-10-19T00:39:14;94169.03;;;4.31;100.00
40384;BME280;26097;42.366;23.818;2023-10-19T00:42:20;94167.91;;;4.37;100.00
40384;BME280;26097;42.366;23.818;2023-10-19T00:45:24;94166.59;;;4.46;100.00
40384;BME280;26097;42.366;23.818;2023-10-19T00:48:26;94163.56;;;4.55;100.00
40384;BME280;26097;42.366;23.818;2023-10-19T00:51:32;94164.47;;;4.54;100.00
40384;BME280;26097;42.366;23.818;2023-10-19T00:54:33;94168.09;;;4.50;100.00
40384;BME280;26097;42.366;23.818;2023-10-19T00:57:40;94154.59;;;4.45;100.00
40384;BME280;26097;42.366;23.818;2023-10-19T01:00:41;94157.19;;;4.45;100.00
40384;BME280;26097;42.366;23.818;2023-10-19T01:03:43;94160.53;;;4.47;100.00
40384;BME280;26097;42.366;23.818;2023-10-19T01:06:43;94165.41;;;4.53;100.00
40384;BME280;26097;42.366;23.818;2023-10-19T01:09:43;94158.41;;;4.55;100.00
40384;BME280;26097;42.366;23.818;2023-10-19T01:12:43;94159.22;;;4.55;100.00
40384;BME280;26097;42.366;23.818;2023-10-19T01:15:42;94155.81;;;4.55;100.00
40384;BME280;26097;42.366;23.818;2023-10-19T01:18:42;94157.94;;;4.47;100.00
40384;BME280;26097;42.366;23.818;2023-10-19T01:21:42;94152.94;;;4.43;100.00
40384;BME280;26097;42.366;23.818;2023-10-19T01:24:44;94149.06;;;4.35;100.00
40384;BME280;26097;42.366;23.818;2023-10-19T01:27:44;94148.38;;;4.31;100.00
40384;BME280;26097;42.366;23.818;2023-10-19T01:30:44;94147.03;;;4.24;100.00
40384;BME280;26097;42.366;23.818;2023-10-19T01:33:44;94154.63;;;4.09;100.00
40384;BME280;26097;42.366;23.818;2023-10-19T01:36:43;94147.50;;;3.97;100.00
40384;BME280;26097;42.366;23.818;2023-10-19T01:39:43;94154.88;;;3.87;100.00
40384;BME280;26097;42.366;23.818;2023-10-19T01:42:44;94160.69;;;3.91;100.00
40384;BME280;26097;42.366;23.818;2023-10-19T01:45:44;94148.41;;;3.96;100.00
40384;BME280;26097;42.366;23.818;2023-10-19T01:48:43;94154.63;;;4.09;100.00
40384;BME280;26097;42.366;23.818;2023-10-19T01:51:43;94160.84;;;4.23;100.00
40384;BME280;26097;42.366;23.818;2023-10-19T01:54:46;94155.53;;;4.26;100.00
40384;BME280;26097;42.366;23.818;2023-10-19T01:57:45;94144.13;;;4.30;100.00
40384;BME280;26097;42.366;23.818;2023-10-19T02:00:44;94137.78;;;4.37;100.00
40384;BME280;26097;42.366;23.818;2023-10-19T02:03:44;94141.63;;;4.46;100.00
40384;BME280;26097;42.366;23.818;2023-10-19T02:06:43;94144.03;;;4.67;100.00
40384;BME280;26097;42.366;23.818;2023-10-19T02:09:45;94151.22;;;4.78;100.00
40384;BME280;26097;42.366;23.818;2023-10-19T02:12:46;94142.88;;;4.72;100.00
40384;BME280;26097;42.366;23.818;2023-10-19T02:15:45;94147.53;;;4.82;100.00
40384;BME280;26097;42.366;23.818;2023-10-19T02:18:45;94151.16;;;4.95;100.00
40384;BME280;26097;42.366;23.818;2023-10-19T02:21:44;94149.56;;;4.93;100.00
40384;BME280;26097;42.366;23.818;2023-10-19T02:24:47;94151.91;;;4.97;100.00
40384;BME280;26097;42.366;23.818;2023-10-19T02:27:46;94149.56;;;5.09;100.00
40384;BME280;26097;42.366;23.818;2023-10-19T02:30:45;94153.91;;;5.24;100.00
40384;BME280;26097;42.366;23.818;2023-10-19T02:33:45;94143.41;;;5.27;100.00
40384;BME280;26097;42.366;23.818;2023-10-19T02:36:45;94135.59;;;5.29;100.00
40384;BME280;26097;42.366;23.818;2023-10-19T02:39:46;94143.28;;;5.31;100.00
40384;BME280;26097;42.366;23.818;2023-10-19T02:42:46;94138.09;;;5.31;100.00
40384;BME280;26097;42.366;23.818;2023-10-19T02:45:52;94141.75;;;5.26;100.00
40384;BME280;26097;42.366;23.818;2023-10-19T02:48:52;94138.75;;;5.34;100.00
40384;BME280;26097;42.366;23.818;2023-10-19T02:51:53;94145.25;;;5.41;100.00
40384;BME280;26097;42.366;23.818;2023-10-19T02:54:52;94140.16;;;5.40;100.00
40384;BME280;26097;42.366;23.818;2023-10-19T02:57:56;94147.00;;;5.41;100.00
40384;BME280;26097;42.366;23.818;2023-10-19T03:00:58;94150.09;;;5.32;100.00
40384;BME280;26097;42.366;23.818;2023-10-19T03:04:00;94149.78;;;5.22;100.00
40384;BME280;26097;42.366;23.818;2023-10-19T03:07:00;94160.50;;;5.14;100.00
40384;BME280;26097;42.366;23.818;2023-10-19T03:09:59;94153.41;;;5.02;100.00
40384;BME280;26097;42.366;23.818;2023-10-19T03:13:01;94153.91;;;4.92;100.00
40384;BME280;26097;42.366;23.818;2023-10-19T03:16:03;94149.38;;;4.80;100.00
40384;BME280;26097;42.366;23.818;2023-10-19T03:19:06;94146.34;;;4.71;100.00
40384;BME280;26097;42.366;23.818;2023-10-19T03:22:06;94145.97;;;4.62;100.00
40384;BME280;26097;42.366;23.818;2023-10-19T03:25:08;94142.00;;;4.56;100.00
40384;BME280;26097;42.366;23.818;2023-10-19T03:28:26;94149.97;;;4.51;100.00
40384;BME280;26097;42.366;23.818;2023-10-19T03:31:25;94154.28;;;4.51;100.00
40384;BME280;26097;42.366;23.818;2023-10-19T03:34:25;94148.81;;;4.57;100.00
40384;BME280;26097;42.366;23.818;2023-10-19T03:37:26;94153.50;;;4.66;100.00
40384;BME280;26097;42.366;23.818;2023-10-19T03:40:28;94146.97;;;4.77;100.00
40384;BME280;26097;42.366;23.818;2023-10-19T03:43:31;94145.03;;;4.80;100.00
40384;BME280;26097;42.366;23.818;2023-10-19T03:46:30;94140.38;;;4.87;100.00
40384;BME280;26097;42.366;23.818;2023-10-19T03:49:30;94140.50;;;5.02;100.00
40384;BME280;26097;42.366;23.818;2023-10-19T03:52:35;94148.59;;;5.11;100.00
40384;BME280;26097;42.366;23.818;2023-10-19T03:55:36;94132.75;;;5.18;100.00
40384;BME280;26097;42.366;23.818;2023-10-19T03:58:37;94127.41;;;5.21;100.00
40384;BME280;26097;42.366;23.818;2023-10-19T04:01:39;94132.25;;;5.27;100.00
40384;BME280;26097;42.366;23.818;2023-10-19T04:04:38;94126.91;;;5.30;100.00
40384;BME280;26097;42.366;23.818;2023-10-19T04:07:41;94124.41;;;5.28;100.00
40384;BME280;26097;42.366;23.818;2023-10-19T04:10:41;94121.06;;;5.26;100.00
40384;BME280;26097;42.366;23.818;2023-10-19T04:13:59;94121.06;;;5.26;100.00
40384;BME280;26097;42.366;23.818;2023-10-19T04:17:02;94116.75;;;5.27;100.00
40384;BME280;26097;42.366;23.818;2023-10-19T04:20:06;94119.16;;;5.14;100.00
40384;BME280;26097;42.366;23.818;2023-10-19T04:23:17;94117.06;;;5.05;100.00
40384;BME280;26097;42.366;23.818;2023-10-19T04:26:17;94111.56;;;4.95;100.00
40384;BME280;26097;42.366;23.818;2023-10-19T04:29:17;94112.13;;;4.84;100.00
40384;BME280;26097;42.366;23.818;2023-10-19T04:32:18;94112.03;;;4.69;100.00
40384;BME280;26097;42.366;23.818;2023-10-19T04:35:24;94114.66;;;4.52;100.00
40384;BME280;26097;42.366;23.818;2023-10-19T04:38:27;94106.47;;;4.43;100.00
40384;BME280;26097;42.366;23.818;2023-10-19T04:41:27;94112.41;;;4.28;100.00
40384;BME280;26097;42.366;23.818;2023-10-19T04:44:29;94108.03;;;4.12;100.00
40384;BME280;26097;42.366;23.818;2023-10-19T04:47:30;94107.81;;;3.99;100.00
40384;BME280;26097;42.366;23.818;2023-10-19T04:50:29;94112.59;;;3.90;100.00
40384;BME280;26097;42.366;23.818;2023-10-19T04:53:29;94116.41;;;3.82;100.00
40384;BME280;26097;42.366;23.818;2023-10-19T04:56:29;94118.38;;;3.77;100.00
40384;BME280;26097;42.366;23.818;2023-10-19T04:59:28;94121.88;;;3.76;100.00
40384;BME280;26097;42.366;23.818;2023-10-19T05:02:32;94126.31;;;3.72;100.00
40384;BME280;26097;42.366;23.818;2023-10-19T05:05:31;94119.34;;;3.75;100.00
40384;BME280;26097;42.366;23.818;2023-10-19T05:08:30;94128.97;;;3.71;100.00
40384;BME280;26097;42.366;23.818;2023-10-19T05:11:32;94128.50;;;3.63;100.00
40384;BME280;26097;42.366;23.818;2023-10-19T05:14:31;94129.72;;;3.55;100.00
40384;BME280;26097;42.366;23.818;2023-10-19T05:17:30;94121.31;;;3.52;100.00
40384;BME280;26097;42.366;23.818;2023-10-19T05:20:30;94121.59;;;3.46;100.00
40384;BME280;26097;42.366;23.818;2023-10-19T05:23:29;94131.97;;;3.44;100.00
40384;BME280;26097;42.366;23.818;2023-10-19T05:26:29;94125.84;;;3.47;100.00
40384;BME280;26097;42.366;23.818;2023-10-19T05:29:31;94129.84;;;3.52;100.00
40384;BME280;26097;42.366;23.818;2023-10-19T05:32:30;94141.09;;;3.69;100.00
40384;BME280;26097;42.366;23.818;2023-10-19T05:35:30;94138.22;;;3.93;100.00
40384;BME280;26097;42.366;23.818;2023-10-19T05:38:29;94134.34;;;4.19;100.00
40384;BME280;26097;42.366;23.818;2023-10-19T05:41:31;94129.94;;;4.39;100.00
40384;BME280;26097;42.366;23.818;2023-10-19T05:44:30;94136.31;;;4.49;100.00
40384;BME280;26097;42.366;23.818;2023-10-19T05:47:29;94132.25;;;4.61;100.00
40384;BME280;26097;42.366;23.818;2023-10-19T05:50:29;94142.63;;;4.77;100.00
40384;BME280;26097;42.366;23.818;2023-10-19T05:53:29;94136.88;;;4.88;100.00
40384;BME280;26097;42.366;23.818;2023-10-19T05:56:29;94135.16;;;5.05;100.00
40384;BME280;26097;42.366;23.818;2023-10-19T05:59:29;94139.44;;;5.22;100.00
40384;BME280;26097;42.366;23.818;2023-10-19T06:02:32;94139.94;;;5.45;100.00
40384;BME280;26097;42.366;23.818;2023-10-19T06:05:31;94137.38;;;5.59;100.00
40384;BME280;26097;42.366;23.818;2023-10-19T06:08:31;94145.03;;;5.77;100.00
40384;BME280;26097;42.366;23.818;2023-10-19T06:11:30;94149.69;;;6.02;100.00
40384;BME280;26097;42.366;23.818;2023-10-19T06:14:33;94147.66;;;6.07;100.00
40384;BME280;26097;42.366;23.818;2023-10-19T06:17:32;94149.00;;;6.14;100.00
40384;BME280;26097;42.366;23.818;2023-10-19T06:20:32;94134.78;;;6.22;100.00
40384;BME280;26097;42.366;23.818;2023-10-19T06:23:32;94148.94;;;6.31;100.00
40384;BME280;26097;42.366;23.818;2023-10-19T06:26:32;94138.22;;;6.37;100.00
40384;BME280;26097;42.366;23.818;2023-10-19T06:29:31;94138.06;;;6.40;100.00
40384;BME280;26097;42.366;23.818;2023-10-19T06:32:31;94142.59;;;6.51;100.00
40384;BME280;26097;42.366;23.818;2023-10-19T06:35:31;94138.34;;;6.64;100.00
40384;BME280;26097;42.366;23.818;2023-10-19T06:38:31;94138.34;;;6.93;100.00
40384;BME280;26097;42.366;23.818;2023-10-19T06:41:30;94136.09;;;7.16;100.00
40384;BME280;26097;42.366;23.818;2023-10-19T06:44:30;94131.91;;;7.42;100.00
40384;BME280;26097;42.366;23.818;2023-10-19T06:47:30;94132.34;;;7.49;100.00
40384;BME280;26097;42.366;23.818;2023-10-19T06:50:30;94119.31;;;7.64;100.00
40384;BME280;26097;42.366;23.818;2023-10-19T06:53:30;94127.25;;;7.75;100.00
40384;BME280;26097;42.366;23.818;2023-10-19T06:56:31;94138.69;;;7.85;100.00
40384;BME280;26097;42.366;23.818;2023-10-19T06:59:31;94136.69;;;8.04;100.00
40384;BME280;26097;42.366;23.818;2023-10-19T07:02:32;94142.63;;;8.19;100.00
40384;BME280;26097;42.366;23.818;2023-10-19T07:05:31;94131.44;;;8.31;100.00
40384;BME280;26097;42.366;23.818;2023-10-19T07:08:31;94136.72;;;8.42;100.00
40384;BME280;26097;42.366;23.818;2023-10-19T07:11:30;94137.16;;;8.49;100.00
40384;BME280;26097;42.366;23.818;2023-10-19T07:14:32;94138.66;;;8.66;100.00
40384;BME280;26097;42.366;23.818;2023-10-19T07:17:31;94127.63;;;8.76;100.00
40384;BME280;26097;42.366;23.818;2023-10-19T07:20:31;94128.34;;;8.91;100.00
40384;BME280;26097;42.366;23.818;2023-10-19T07:23:38;94130.31;;;9.13;100.00
40384;BME280;26097;42.366;23.818;2023-10-19T07:26:37;94131.91;;;9.40;100.00
40384;BME280;26097;42.366;23.818;2023-10-19T07:29:52;94130.09;;;9.53;100.00
40384;BME280;26097;42.366;23.818;2023-10-19T07:32:52;94131.31;;;9.61;100.00
40384;BME280;26097;42.366;23.818;2023-10-19T07:35:57;94123.31;;;9.64;100.00
40384;BME280;26097;42.366;23.818;2023-10-19T07:38:59;94125.22;;;9.73;100.00
40384;BME280;26097;42.366;23.818;2023-10-19T07:41:58;94119.47;;;9.81;100.00
40384;BME280;26097;42.366;23.818;2023-10-19T07:44:58;94129.34;;;9.89;100.00
40384;BME280;26097;42.366;23.818;2023-10-19T07:47:58;94123.13;;;10.03;100.00
40384;BME280;26097;42.366;23.818;2023-10-19T07:51:05;94113.75;;;10.00;100.00
40384;BME280;26097;42.366;23.818;2023-10-19T07:54:04;94099.44;;;9.94;100.00
40384;BME280;26097;42.366;23.818;2023-10-19T07:57:04;94103.78;;;9.94;100.00
40384;BME280;26097;42.366;23.818;2023-10-19T08:00:07;94093.75;;;10.00;100.00
40384;BME280;26097;42.366;23.818;2023-10-19T08:03:07;94101.59;;;10.12;100.00
40384;BME280;26097;42.366;23.818;2023-10-19T08:06:07;94103.88;;;10.17;100.00
40384;BME280;26097;42.366;23.818;2023-10-19T08:09:07;94112.78;;;10.25;100.00
40384;BME280;26097;42.366;23.818;2023-10-19T08:12:10;94100.69;;;10.24;100.00
40384;BME280;26097;42.366;23.818;2023-10-19T08:15:13;94093.19;;;10.44;100.00
40384;BME280;26097;42.366;23.818;2023-10-19T08:18:14;94094.28;;;10.64;100.00
40384;BME280;26097;42.366;23.818;2023-10-19T08:21:14;94087.19;;;10.78;100.00
40384;BME280;26097;42.366;23.818;2023-10-19T08:24:13;94084.56;;;11.12;100.00
40384;BME280;26097;42.366;23.818;2023-10-19T08:27:13;94091.06;;;11.40;100.00
40384;BME280;26097;42.366;23.818;2023-10-19T08:30:12;94089.66;;;11.80;100.00
40384;BME280;26097;42.366;23.818;2023-10-19T08:33:16;94084.53;;;11.90;100.00
40384;BME280;26097;42.366;23.818;2023-10-19T08:36:18;94086.19;;;11.91;100.00
40384;BME280;26097;42.366;23.818;2023-10-19T08:39:18;94090.22;;;12.17;100.00
40384;BME280;26097;42.366;23.818;2023-10-19T08:42:18;94096.38;;;12.27;100.00
40384;BME280;26097;42.366;23.818;2023-10-19T08:45:17;94098.78;;;12.19;100.00
40384;BME280;26097;42.366;23.818;2023-10-19T08:48:17;94108.91;;;12.12;100.00
40384;BME280;26097;42.366;23.818;2023-10-19T08:51:17;94099.72;;;12.18;100.00
40384;BME280;26097;42.366;23.818;2023-10-19T08:54:17;94112.31;;;12.24;100.00
40384;BME280;26097;42.366;23.818;2023-10-19T08:57:16;94105.41;;;12.23;100.00
40384;BME280;26097;42.366;23.818;2023-10-19T09:00:18;94112.41;;;12.22;100.00
40384;BME280;26097;42.366;23.818;2023-10-19T09:03:18;94110.91;;;12.20;100.00
40384;BME280;26097;42.366;23.818;2023-10-19T09:06:17;94101.06;;;12.33;100.00
40384;BME280;26097;42.366;23.818;2023-10-19T09:09:17;94103.78;;;12.22;100.00
40384;BME280;26097;42.366;23.818;2023-10-19T09:12:18;94104.72;;;12.21;100.00
40384;BME280;26097;42.366;23.818;2023-10-19T09:15:22;94121.16;;;12.33;100.00
40384;BME280;26097;42.366;23.818;2023-10-19T09:18:25;94121.16;;;12.54;100.00
40384;BME280;26097;42.366;23.818;2023-10-19T09:21:29;94120.84;;;12.68;100.00
40384;BME280;26097;42.366;23.818;2023-10-19T09:24:31;94119.91;;;13.00;100.00
40384;BME280;26097;42.366;23.818;2023-10-19T09:27:32;94118.34;;;13.19;100.00
40384;BME280;26097;42.366;23.818;2023-10-19T09:30:33;94119.84;;;13.53;100.00
40384;BME280;26097;42.366;23.818;2023-10-19T09:33:33;94120.53;;;13.45;100.00
40384;BME280;26097;42.366;23.818;2023-10-19T09:36:33;94125.56;;;13.37;100.00
40384;BME280;26097;42.366;23.818;2023-10-19T09:39:33;94127.81;;;13.10;100.00
40384;BME280;26097;42.366;23.818;2023-10-19T09:42:36;94112.50;;;13.06;100.00
40384;BME280;26097;42.366;23.818;2023-10-19T09:45:41;94103.28;;;12.80;100.00
40384;BME280;26097;42.366;23.818;2023-10-19T09:48:45;94112.31;;;12.66;100.00
40384;BME280;26097;42.366;23.818;2023-10-19T09:51:45;94097.13;;;12.60;100.00
40384;BME280;26097;42.366;23.818;2023-10-19T09:55:00;94113.31;;;12.54;100.00
40384;BME280;26097;42.366;23.818;2023-10-19T09:58:09;94097.38;;;12.57;100.00
40384;BME280;26097;42.366;23.818;2023-10-19T10:01:11;94098.84;;;12.50;100.00
40384;BME280;26097;42.366;23.818;2023-10-19T10:04:31;94083.81;;;12.42;100.00
40384;BME280;26097;42.366;23.818;2023-10-19T10:07:30;94078.50;;;12.32;100.00
40384;BME280;26097;42.366;23.818;2023-10-19T10:10:30;94080.69;;;12.27;100.00
40384;BME280;26097;42.366;23.818;2023-10-19T10:16:33;94050.06;;;12.91;100.00
40384;BME280;26097;42.366;23.818;2023-10-19T10:19:33;94044.53;;;13.35;100.00
40384;BME280;26097;42.366;23.818;2023-10-19T10:22:32;94028.59;;;13.48;100.00
40384;BME280;26097;42.366;23.818;2023-10-19T10:25:34;94009.72;;;13.74;100.00
40384;BME280;26097;42.366;23.818;2023-10-19T10:28:33;94009.59;;;13.95;100.00
40384;BME280;26097;42.366;23.818;2023-10-19T10:31:41;93988.31;;;14.28;100.00
40384;BME280;26097;42.366;23.818;2023-10-19T10:34:42;93998.06;;;14.46;100.00
40384;BME280;26097;42.366;23.818;2023-10-19T10:37:53;93999.66;;;14.66;100.00
40384;BME280;26097;42.366;23.818;2023-10-19T10:40:53;93998.13;;;14.74;100.00
40384;BME280;26097;42.366;23.818;2023-10-19T10:43:57;93985.06;;;14.92;100.00
40384;BME280;26097;42.366;23.818;2023-10-19T10:46:57;93988.41;;;14.84;100.00
40384;BME280;26097;42.366;23.818;2023-10-19T10:49:58;93987.88;;;14.70;100.00
40384;BME280;26097;42.366;23.818;2023-10-19T10:52:57;93986.38;;;14.78;100.00
40384;BME280;26097;42.366;23.818;2023-10-19T10:56:00;93991.22;;;14.73;100.00
40384;BME280;26097;42.366;23.818;2023-10-19T10:59:12;93986.53;;;14.66;100.00
40384;BME280;26097;42.366;23.818;2023-10-19T11:02:20;93979.44;;;14.87;100.00
40384;BME280;26097;42.366;23.818;2023-10-19T11:05:21;93974.16;;;14.96;100.00
40384;BME280;26097;42.366;23.818;2023-10-19T11:08:24;93967.91;;;14.97;100.00
40384;BME280;26097;42.366;23.818;2023-10-19T11:11:24;93969.53;;;15.08;100.00
40384;BME280;26097;42.366;23.818;2023-10-19T11:14:23;93964.50;;;15.15;100.00
40384;BME280;26097;42.366;23.818;2023-10-19T11:17:24;93964.16;;;15.28;100.00
40384;BME280;26097;42.366;23.818;2023-10-19T11:20:29;93968.06;;;15.42;100.00
40384;BME280;26097;42.366;23.818;2023-10-19T11:23:48;93962.19;;;15.48;100.00
40384;BME280;26097;42.366;23.818;2023-10-19T11:26:47;93957.75;;;15.67;100.00
40384;BME280;26097;42.366;23.818;2023-10-19T11:29:56;93944.78;;;15.47;100.00
40384;BME280;26097;42.366;23.818;2023-10-19T11:32:57;93951.84;;;15.47;100.00
40384;BME280;26097;42.366;23.818;2023-10-19T11:35:57;93943.72;;;15.94;100.00
40384;BME280;26097;42.366;23.818;2023-10-19T11:38:56;93951.63;;;16.21;100.00
40384;BME280;26097;42.366;23.818;2023-10-19T11:41:56;93936.63;;;16.39;100.00
40384;BME280;26097;42.366;23.818;2023-10-19T11:44:56;93936.91;;;16.63;100.00
40384;BME280;26097;42.366;23.818;2023-10-19T11:47:55;93933.22;;;16.47;100.00
40384;BME280;26097;42.366;23.818;2023-10-19T11:50:56;93928.72;;;16.74;100.00
40384;BME280;26097;42.366;23.818;2023-10-19T11:53:55;93914.69;;;16.57;100.00
40384;BME280;26097;42.366;23.818;2023-10-19T11:56:55;93909.94;;;16.61;100.00
40384;BME280;26097;42.366;23.818;2023-10-19T11:59:54;93904.25;;;16.82;100.00
40384;BME280;26097;42.366;23.818;2023-10-19T12:02:53;93903.25;;;17.34;100.00
40384;BME280;26097;42.366;23.818;2023-10-19T12:05:53;93910.69;;;17.55;100.00
40384;BME280;26097;42.366;23.818;2023-10-19T12:08:53;93893.41;;;17.61;100.00
40384;BME280;26097;42.366;23.818;2023-10-19T12:11:54;93901.44;;;17.43;100.00
40384;BME280;26097;42.366;23.818;2023-10-19T12:14:54;93893.06;;;17.39;91.82
40384;BME280;26097;42.366;23.818;2023-10-19T12:17:54;93886.97;;;17.31;91.72
40384;BME280;26097;42.366;23.818;2023-10-19T12:20:54;93879.38;;;17.36;92.87
40384;BME280;26097;42.366;23.818;2023-10-19T12:23:58;93887.94;;;17.30;87.87
40384;BME280;26097;42.366;23.818;2023-10-19T12:27:00;93885.16;;;17.39;90.25
40384;BME280;26097;42.366;23.818;2023-10-19T12:29:59;93875.94;;;17.60;90.34
40384;BME280;26097;42.366;23.818;2023-10-19T12:33:01;93870.97;;;17.57;90.35
40384;BME280;26097;42.366;23.818;2023-10-19T12:36:00;93876.41;;;17.55;89.10
40384;BME280;26097;42.366;23.818;2023-10-19T12:39:00;93867.88;;;17.53;86.37
40384;BME280;26097;42.366;23.818;2023-10-19T12:41:59;93879.22;;;17.54;87.39
40384;BME280;26097;42.366;23.818;2023-10-19T12:45:00;93870.16;;;17.56;86.63
40384;BME280;26097;42.366;23.818;2023-10-19T12:47:59;93869.50;;;17.63;84.77
40384;BME280;26097;42.366;23.818;2023-10-19T12:50:59;93874.13;;;17.52;84.46
40384;BME280;26097;42.366;23.818;2023-10-19T12:54:00;93863.59;;;17.69;83.83
40384;BME280;26097;42.366;23.818;2023-10-19T12:57:03;93858.44;;;17.84;82.83
40384;BME280;26097;42.366;23.818;2023-10-19T13:00:03;93851.53;;;17.83;81.96
40384;BME280;26097;42.366;23.818;2023-10-19T13:03:23;93839.97;;;17.92;81.72
40384;BME280;26097;42.366;23.818;2023-10-19T13:06:23;93836.00;;;18.13;81.78
40384;BME280;26097;42.366;23.818;2023-10-19T13:09:28;93838.16;;;18.09;82.75
40384;BME280;26097;42.366;23.818;2023-10-19T13:12:30;93838.97;;;18.10;83.45
40384;BME280;26097;42.366;23.818;2023-10-19T13:15:34;93841.47;;;18.11;79.98
40384;BME280;26097;42.366;23.818;2023-10-19T13:18:34;93820.34;;;18.11;81.96
40384;BME280;26097;42.366;23.818;2023-10-19T13:21:34;93819.38;;;18.12;83.58
40384;BME280;26097;42.366;23.818;2023-10-19T13:24:33;93819.03;;;18.16;82.21
40384;BME280;26097;42.366;23.818;2023-10-19T13:27:40;93805.81;;;18.16;83.45
40384;BME280;26097;42.366;23.818;2023-10-19T13:30:43;93809.31;;;18.08;85.38
40384;BME280;26097;42.366;23.818;2023-10-19T13:33:43;93803.53;;;18.04;83.87
40384;BME280;26097;42.366;23.818;2023-10-19T13:36:43;93802.16;;;18.25;84.47
40384;BME280;26097;42.366;23.818;2023-10-19T13:39:44;93801.16;;;18.26;84.97
40384;BME280;26097;42.366;23.818;2023-10-19T13:42:43;93796.03;;;18.33;85.12
40384;BME280;26097;42.366;23.818;2023-10-19T13:45:47;93802.69;;;18.20;85.20
40384;BME280;26097;42.366;23.818;2023-10-19T13:48:46;93793.16;;;18.11;86.39
40384;BME280;26097;42.366;23.818;2023-10-19T13:51:46;93803.84;;;18.18;86.16
40384;BME280;26097;42.366;23.818;2023-10-19T13:54:45;93795.44;;;18.22;86.00
40384;BME280;26097;42.366;23.818;2023-10-19T13:57:46;93795.13;;;18.09;87.82
40384;BME280;26097;42.366;23.818;2023-10-19T14:00:47;93796.28;;;18.06;87.32
40384;BME280;26097;42.366;23.818;2023-10-19T14:03:48;93790.72;;;17.84;89.18
40384;BME280;26097;42.366;23.818;2023-10-19T14:06:47;93796.06;;;17.43;90.52
40384;BME280;26097;42.366;23.818;2023-10-19T14:09:49;93785.03;;;17.39;93.06
40384;BME280;26097;42.366;23.818;2023-10-19T14:12:48;93772.69;;;17.32;95.09
40384;BME280;26097;42.366;23.818;2023-10-19T14:15:51;93781.59;;;17.14;93.80
40384;BME280;26097;42.366;23.818;2023-10-19T14:18:50;93776.31;;;17.06;96.25
40384;BME280;26097;42.366;23.818;2023-10-19T14:21:49;93786.78;;;16.73;98.40
40384;BME280;26097;42.366;23.818;2023-10-19T14:24:50;93779.19;;;16.69;98.22
40384;BME280;26097;42.366;23.818;2023-10-19T14:27:53;93782.00;;;16.68;98.41
40384;BME280;26097;42.366;23.818;2023-10-19T14:30:56;93789.19;;;16.06;100.00
40384;BME280;26097;42.366;23.818;2023-10-19T14:33:55;93774.78;;;15.57;100.00
40384;BME280;26097;42.366;23.818;2023-10-19T14:36:58;93764.19;;;15.41;100.00
40384;BME280;26097;42.366;23.818;2023-10-19T14:39:58;93767.53;;;15.07;100.00
40384;BME280;26097;42.366;23.818;2023-10-19T14:42:58;93774.53;;;14.98;100.00
40384;BME280;26097;42.366;23.818;2023-10-19T14:45:57;93762.09;;;14.82;100.00
40384;BME280;26097;42.366;23.818;2023-10-19T14:48:57;93758.13;;;14.78;100.00
40384;BME280;26097;42.366;23.818;2023-10-19T14:51:56;93761.09;;;14.65;100.00
40384;BME280;26097;42.366;23.818;2023-10-19T14:54:55;93772.91;;;14.51;100.00
40384;BME280;26097;42.366;23.818;2023-10-19T14:57:55;93769.09;;;14.45;100.00
40384;BME280;26097;42.366;23.818;2023-10-19T15:00:55;93758.19;;;14.22;100.00
40384;BME280;26097;42.366;23.818;2023-10-19T15:03:54;93765.75;;;14.07;100.00
40384;BME280;26097;42.366;23.818;2023-10-19T15:06:53;93769.25;;;13.88;100.00
40384;BME280;26097;42.366;23.818;2023-10-19T15:09:53;93772.63;;;13.70;100.00
40384;BME280;26097;42.366;23.818;2023-10-19T15:12:53;93767.03;;;13.55;100.00
40384;BME280;26097;42.366;23.818;2023-10-19T15:15:52;93765.25;;;13.36;100.00
40384;BME280;26097;42.366;23.818;2023-10-19T15:18:53;93764.06;;;13.20;100.00
40384;BME280;26097;42.366;23.818;2023-10-19T15:21:53;93775.94;;;13.05;100.00
40384;BME280;26097;42.366;23.818;2023-10-19T15:24:52;93777.03;;;12.92;100.00
40384;BME280;26097;42.366;23.818;2023-10-19T15:27:52;93789.59;;;12.79;100.00
40384;BME280;26097;42.366;23.818;2023-10-19T15:30:52;93796.88;;;12.65;100.00
40384;BME280;26097;42.366;23.818;2023-10-19T15:33:51;93793.81;;;12.50;100.00
40384;BME280;26097;42.366;23.818;2023-10-19T15:36:51;93802.59;;;12.30;100.00
40384;BME280;26097;42.366;23.818;2023-10-19T15:39:51;93817.81;;;12.14;100.00
40384;BME280;26097;42.366;23.818;2023-10-19T15:42:51;93804.38;;;11.98;100.00
40384;BME280;26097;42.366;23.818;2023-10-19T15:45:57;93810.31;;;11.69;100.00